createdAt,value
2018-12-22T00:02:20.906Z,80.11
2018-12-22T00:06:24.414Z,80.17
2018-12-22T00:10:27.973Z,80.63
2018-12-22T00:14:31.399Z,79.79
2018-12-22T00:18:34.988Z,80.50
2018-12-22T00:22:38.437Z,80.14
2018-12-22T00:26:41.868Z,80.00
2018-12-22T00:30:45.309Z,80.08
2018-12-22T00:34:51.878Z,80.31
2018-12-22T00:38:55.326Z,79.88
2018-12-22T00:42:58.803Z,80.61
2018-12-22T00:47:02.244Z,79.85
2018-12-22T00:51:05.825Z,79.78
2018-12-22T00:55:09.284Z,80.09
2018-12-22T00:59:12.822Z,79.68
2018-12-22T01:03:16.370Z,78.99
2018-12-22T01:07:19.847Z,79.12
2018-12-22T01:11:23.260Z,79.07
2018-12-22T01:15:26.723Z,79.24
2018-12-22T01:19:30.208Z,79.57
2018-12-22T01:23:33.619Z,79.13
2018-12-22T01:27:37.143Z,79.54
2018-12-22T01:31:40.591Z,79.06
2018-12-22T01:35:44.036Z,79.37
2018-12-22T01:39:47.479Z,79.38
2018-12-22T01:43:50.962Z,79.44
2018-12-22T01:47:54.364Z,79.01
2018-12-22T01:51:57.823Z,78.76
2018-12-22T01:56:01.246Z,78.18
2018-12-22T02:00:05.151Z,78.35
2018-12-22T02:04:08.607Z,78.39
2018-12-22T02:08:12.042Z,78.45
2018-12-22T02:12:15.650Z,77.61
2018-12-22T02:16:19.093Z,77.24
2018-12-22T02:20:22.517Z,77.08
2018-12-22T02:24:25.960Z,77.88
2018-12-22T02:28:29.420Z,77.71
2018-12-22T02:32:32.899Z,77.27
2018-12-22T02:36:36.376Z,77.86
2018-12-22T02:40:39.840Z,77.53
2018-12-22T02:44:43.317Z,77.62
2018-12-22T02:48:46.749Z,77.17
2018-12-22T02:52:50.387Z,77.73
2018-12-22T02:56:53.794Z,77.81
2018-12-22T03:00:57.255Z,76.90
2018-12-22T03:05:00.698Z,76.76
2018-12-22T03:09:05.157Z,77.54
2018-12-22T03:13:08.620Z,77.30
2018-12-22T03:17:12.059Z,77.40
2018-12-22T03:21:15.526Z,77.06
2018-12-22T03:25:18.976Z,77.37
2018-12-22T03:29:22.430Z,77.37
2018-12-22T03:33:25.879Z,77.56
2018-12-22T03:37:29.328Z,77.26
2018-12-22T03:41:32.807Z,76.83
2018-12-22T03:45:36.316Z,76.63
2018-12-22T03:49:39.764Z,77.02
2018-12-22T03:53:43.227Z,76.93
2018-12-22T03:57:46.667Z,77.54
2018-12-22T04:01:50.095Z,77.18
2018-12-22T04:05:53.526Z,77.39
2018-12-22T04:09:56.953Z,78.04
2018-12-22T04:14:00.417Z,78.21
2018-12-22T04:18:04.724Z,79.43
2018-12-22T04:22:08.196Z,78.68
2018-12-22T04:26:11.654Z,79.11
2018-12-22T04:30:15.124Z,78.45
2018-12-22T04:34:18.582Z,78.23
2018-12-22T04:38:22.085Z,78.49
2018-12-22T04:42:25.551Z,78.17
2018-12-22T04:46:29.083Z,77.62
2018-12-22T04:50:32.483Z,77.66
2018-12-22T04:54:35.932Z,77.56
2018-12-22T04:58:39.432Z,77.29
2018-12-22T05:02:42.886Z,77.49
2018-12-22T05:06:46.348Z,77.76
2018-12-22T05:10:49.766Z,77.06
2018-12-22T05:14:53.217Z,77.40
2018-12-22T05:18:56.669Z,77.02
2018-12-22T05:23:00.123Z,76.86
2018-12-22T05:27:03.638Z,77.43
2018-12-22T05:31:07.091Z,77.17
2018-12-22T05:35:10.595Z,78.15
2018-12-22T05:39:14.074Z,78.09
2018-12-22T05:43:17.501Z,79.14
2018-12-22T05:47:20.929Z,78.37
2018-12-22T05:51:24.440Z,78.52
2018-12-22T05:55:27.988Z,78.18
2018-12-22T05:59:31.402Z,78.93
2018-12-22T06:03:34.914Z,78.10
2018-12-22T06:07:38.365Z,78.15
2018-12-22T06:11:41.859Z,78.46
2018-12-22T06:15:45.318Z,77.82
2018-12-22T06:19:48.739Z,78.37
2018-12-22T06:23:52.220Z,78.03
2018-12-22T06:27:55.673Z,77.32
2018-12-22T06:31:59.187Z,76.70
2018-12-22T06:36:02.637Z,76.96
2018-12-22T06:40:06.237Z,76.70
2018-12-22T06:44:09.720Z,77.02
2018-12-22T06:48:13.197Z,76.22
2018-12-22T06:52:16.665Z,76.64
2018-12-22T06:56:20.099Z,76.18
2018-12-22T07:00:23.532Z,76.57
2018-12-22T07:04:27.016Z,76.45
2018-12-22T07:08:30.462Z,75.69
2018-12-22T07:12:33.921Z,76.29
2018-12-22T07:16:37.562Z,76.60
2018-12-22T07:20:41.098Z,76.43
2018-12-22T07:24:44.595Z,75.06
2018-12-22T07:28:48.107Z,75.64
2018-12-22T07:32:56.960Z,76.17
2018-12-22T07:36:57.023Z,75.89
2018-12-22T07:41:00.546Z,76.94
2018-12-22T07:45:04.141Z,76.55
2018-12-22T07:49:07.753Z,76.97
2018-12-22T07:53:11.210Z,77.79
2018-12-22T07:57:14.690Z,78.32
2018-12-22T08:01:19.892Z,78.69
2018-12-22T08:05:23.625Z,78.83
2018-12-22T08:09:27.192Z,79.08
2018-12-22T08:13:30.631Z,80.13
2018-12-22T08:17:34.102Z,79.59
2018-12-22T08:21:37.666Z,80.40
2018-12-22T08:25:41.123Z,80.29
2018-12-22T08:29:44.620Z,80.17
2018-12-22T08:33:48.097Z,80.64
2018-12-22T08:37:51.555Z,81.35
2018-12-22T08:41:55.000Z,80.75
2018-12-22T08:45:58.459Z,80.45
2018-12-22T08:50:09.059Z,81.35
2018-12-22T08:54:07.737Z,81.06
2018-12-22T08:58:11.201Z,81.93
2018-12-22T09:02:14.915Z,81.51
2018-12-22T09:06:18.354Z,81.32
2018-12-22T09:10:21.911Z,81.26
2018-12-22T09:14:25.407Z,81.71
2018-12-22T09:18:28.903Z,81.44
2018-12-22T09:22:32.484Z,82.32
2018-12-22T09:26:36.239Z,82.22
2018-12-22T09:30:39.694Z,81.99
2018-12-22T09:34:43.140Z,81.96
2018-12-22T09:38:46.627Z,81.35
2018-12-22T09:42:50.064Z,81.70
2018-12-22T09:46:53.548Z,82.35
2018-12-22T09:50:57.077Z,82.35
2018-12-22T09:55:00.547Z,80.77
2018-12-22T09:59:03.988Z,79.51
2018-12-22T10:03:07.611Z,79.00
2018-12-22T10:07:11.695Z,78.63
2018-12-22T10:11:15.153Z,78.05
2018-12-22T10:15:18.580Z,77.74
2018-12-22T10:19:22.068Z,78.33
2018-12-22T10:23:25.744Z,77.96
2018-12-22T10:27:29.412Z,78.66
2018-12-22T10:31:32.885Z,78.43
2018-12-22T10:35:36.367Z,78.20
2018-12-22T10:39:39.875Z,78.38
2018-12-22T10:43:43.345Z,78.95
2018-12-22T10:47:46.831Z,78.88
2018-12-22T10:51:50.623Z,79.28
2018-12-22T10:55:54.071Z,78.54
2018-12-22T10:59:57.551Z,77.87
2018-12-22T11:04:01.460Z,78.03
2018-12-22T11:08:05.075Z,76.89
2018-12-22T11:12:08.645Z,77.57
2018-12-22T11:16:12.271Z,77.15
2018-12-22T11:20:16.076Z,76.94
2018-12-22T11:24:19.629Z,76.53
2018-12-22T11:28:23.171Z,76.76
2018-12-22T11:32:26.804Z,76.69
2018-12-22T11:36:30.273Z,75.41
2018-12-22T11:40:33.934Z,75.85
2018-12-22T11:44:37.470Z,74.88
2018-12-22T11:48:51.848Z,74.85
2018-12-22T11:52:55.350Z,74.44
2018-12-22T11:56:58.860Z,73.74
2018-12-22T12:01:02.324Z,74.03
2018-12-22T12:05:07.246Z,72.49
2018-12-22T12:09:10.805Z,72.35
2018-12-22T12:13:14.266Z,71.95
2018-12-22T12:17:34.403Z,71.25
2018-12-22T12:21:37.909Z,71.90
2018-12-22T12:25:41.375Z,71.21
2018-12-22T12:29:44.952Z,71.65
2018-12-22T12:33:48.408Z,72.69
2018-12-22T12:37:51.840Z,72.45
2018-12-22T12:41:55.291Z,72.53
2018-12-22T12:45:58.848Z,73.46
2018-12-22T12:50:02.580Z,73.23
2018-12-22T12:54:06.579Z,73.83
2018-12-22T12:58:10.182Z,74.90
2018-12-22T13:02:13.653Z,74.15
2018-12-22T13:06:17.192Z,74.26
2018-12-22T13:10:20.892Z,73.91
2018-12-22T13:14:25.227Z,73.54
2018-12-22T13:18:28.703Z,73.47
2018-12-22T13:22:32.172Z,72.37
2018-12-22T13:26:36.835Z,72.58
2018-12-22T13:30:40.923Z,72.47
2018-12-22T13:34:46.306Z,71.99
2018-12-22T13:38:54.142Z,72.42
2018-12-22T13:42:57.617Z,71.64
2018-12-22T13:47:01.087Z,72.19
2018-12-22T13:51:04.694Z,71.12
2018-12-22T13:55:08.663Z,70.86
2018-12-22T13:59:12.131Z,70.75
2018-12-22T14:03:20.201Z,71.29
2018-12-22T14:07:23.697Z,70.63
2018-12-22T14:11:27.223Z,70.67
2018-12-22T14:15:31.044Z,69.85
2018-12-22T14:19:34.771Z,69.86
2018-12-22T14:24:02.540Z,69.75
2018-12-22T14:28:06.137Z,69.40
2018-12-22T14:32:09.595Z,69.26
2018-12-22T14:36:14.335Z,69.47
2018-12-22T14:40:17.804Z,68.64
2018-12-22T14:44:21.316Z,68.71
2018-12-22T14:48:24.742Z,67.73
2018-12-22T14:52:28.216Z,68.03
2018-12-22T14:56:36.737Z,67.61
2018-12-22T15:00:40.323Z,67.79
2018-12-22T15:04:43.776Z,67.27
2018-12-22T15:08:47.221Z,67.60
2018-12-22T15:12:50.675Z,67.10
2018-12-22T15:16:54.245Z,67.37
2018-12-22T15:20:59.043Z,67.70
2018-12-22T15:25:02.588Z,67.88
2018-12-22T15:29:06.100Z,67.08
2018-12-22T15:33:09.625Z,68.10
2018-12-22T15:37:13.144Z,67.97
2018-12-22T15:41:16.669Z,68.29
2018-12-22T15:45:20.180Z,68.13
2018-12-22T15:49:24.107Z,68.23
2018-12-22T15:53:27.576Z,68.17
2018-12-22T15:57:31.042Z,68.02
2018-12-22T16:01:34.510Z,68.63
2018-12-22T16:05:38.018Z,68.05
2018-12-22T16:09:41.809Z,68.16
2018-12-22T16:13:45.427Z,69.03
2018-12-22T16:17:48.916Z,68.43
2018-12-22T16:21:52.420Z,68.05
2018-12-22T16:25:55.923Z,68.84
2018-12-22T16:29:59.403Z,68.45
2018-12-22T16:34:03.444Z,68.11
2018-12-22T16:38:06.969Z,68.62
2018-12-22T16:42:10.462Z,68.09
2018-12-22T16:46:13.934Z,67.89
2018-12-22T16:50:17.470Z,68.60
2018-12-22T16:54:20.906Z,68.35
2018-12-22T16:58:34.308Z,67.86
2018-12-22T17:02:45.861Z,66.39
2018-12-22T17:06:49.397Z,66.20
2018-12-22T17:10:57.444Z,66.37
2018-12-22T17:15:01.151Z,64.97
2018-12-22T17:19:04.618Z,65.27
2018-12-22T17:23:33.496Z,65.06
2018-12-22T17:27:37.442Z,64.99
2018-12-22T17:31:42.698Z,65.13
2018-12-22T17:35:46.358Z,64.20
2018-12-22T17:39:53.557Z,63.17
2018-12-22T17:43:55.982Z,63.47
2018-12-22T17:47:59.602Z,63.08
2018-12-22T17:52:03.143Z,62.53
2018-12-22T17:56:06.628Z,62.26
2018-12-22T18:00:11.297Z,62.48
2018-12-22T18:04:15.255Z,61.91
2018-12-22T18:08:18.733Z,62.79
2018-12-22T18:12:22.273Z,62.84
2018-12-22T18:16:25.779Z,63.89
2018-12-22T18:20:29.267Z,63.85
2018-12-22T18:24:32.846Z,64.66
2018-12-22T18:28:36.352Z,65.57
2018-12-22T18:32:39.997Z,66.10
2018-12-22T18:36:43.721Z,66.75
2018-12-22T18:40:47.342Z,66.09
2018-12-22T18:44:51.399Z,66.65
2018-12-22T18:48:55.089Z,66.70
2018-12-22T18:52:58.591Z,66.94
2018-12-22T18:57:02.312Z,66.43
2018-12-22T19:01:06.030Z,66.01
2018-12-22T19:05:09.571Z,66.57
2018-12-22T19:09:18.469Z,66.14
2018-12-22T19:13:22.165Z,65.93
2018-12-22T19:17:25.923Z,65.64
2018-12-22T19:21:29.668Z,65.61
2018-12-22T19:25:33.330Z,66.37
2018-12-22T19:29:37.006Z,65.56
2018-12-22T19:33:40.787Z,66.20
2018-12-22T19:37:44.566Z,66.44
2018-12-22T19:41:48.305Z,66.20
2018-12-22T19:45:52.691Z,66.12
2018-12-22T19:49:56.410Z,66.78
2018-12-22T19:53:59.922Z,66.06
2018-12-22T19:58:03.724Z,66.27
2018-12-22T20:02:07.472Z,65.89
2018-12-22T20:06:11.047Z,66.41
2018-12-22T20:10:14.903Z,66.38
2018-12-22T20:14:18.548Z,66.71
2018-12-22T20:18:22.230Z,66.45
2018-12-22T20:22:25.965Z,66.26
2018-12-22T20:26:29.655Z,66.88
2018-12-22T20:30:33.248Z,66.42
2018-12-22T20:34:36.903Z,66.47
2018-12-22T20:38:41.229Z,66.52
2018-12-22T20:42:44.742Z,66.63
2018-12-22T20:46:48.312Z,66.42
2018-12-22T20:50:51.873Z,67.73
2018-12-22T20:54:55.377Z,67.10
2018-12-22T20:58:58.984Z,66.98
2018-12-22T21:03:02.665Z,67.08
2018-12-22T21:07:06.260Z,67.38
2018-12-22T21:11:09.740Z,66.79
2018-12-22T21:15:13.291Z,66.99
2018-12-22T21:19:17.023Z,66.93
2018-12-22T21:23:20.483Z,67.13
2018-12-22T21:27:24.104Z,67.40
2018-12-22T21:31:29.247Z,67.21
2018-12-22T21:35:36.000Z,67.12
2018-12-22T21:39:41.276Z,66.86
2018-12-22T21:43:44.982Z,67.61
2018-12-22T21:47:50.699Z,67.61
2018-12-22T21:51:54.483Z,67.13
2018-12-22T21:55:58.088Z,67.91
2018-12-22T22:00:01.625Z,67.50
2018-12-22T22:04:05.276Z,67.56
2018-12-22T22:08:08.909Z,68.29
2018-12-22T22:12:12.660Z,68.39
2018-12-22T22:16:16.354Z,68.30
2018-12-22T22:20:20.124Z,67.84
2018-12-22T22:24:23.861Z,68.49
2018-12-22T22:28:34.091Z,68.89
2018-12-22T22:32:37.715Z,68.72
2018-12-22T22:36:41.524Z,69.60
2018-12-22T22:40:45.350Z,69.64
2018-12-22T22:44:48.932Z,69.45
2018-12-22T22:48:52.466Z,69.80
2018-12-22T22:52:55.965Z,69.48
2018-12-22T22:56:59.571Z,69.85
2018-12-22T23:01:03.417Z,69.37
2018-12-22T23:05:06.971Z,69.21
2018-12-22T23:09:10.560Z,69.74
2018-12-22T23:13:14.160Z,69.24
2018-12-22T23:17:17.863Z,69.24
2018-12-22T23:21:21.322Z,69.17
2018-12-22T23:25:24.784Z,69.10
2018-12-22T23:29:28.244Z,69.61
2018-12-22T23:33:31.819Z,69.17
2018-12-22T23:37:35.487Z,69.34
2018-12-22T23:41:39.221Z,69.64
2018-12-22T23:45:42.712Z,68.40
2018-12-22T23:49:46.443Z,68.35
2018-12-22T23:53:50.253Z,68.98
2018-12-22T23:57:53.914Z,68.73
